Time;durP1;ratioP1;P1;durP2;ratioP2;P2;SDS_P1;SDS_P2;PMS_P1;PMS_P2;Temp;Humidity;BMP_temperature;BMP_pressure;BME280_temperature;BME280_humidity;BME280_pressure;Samples;Min_cycle;Max_cycle;Signal;HPM_P1;HPM_P2
2021/10/01 00:00:21;;;;;;;;;;;;;;;8.28;68.59;97649.53;30001;983;1884;-63
2021/10/01 00:00:52;;;;;;;;;;;;;;;8.28;68.48;97657.62;30001;983;1880;-64
2021/10/01 00:01:23;;;;;;;;;;;;;;;8.27;68.46;97658.72;30001;983;1884;-63
2021/10/01 00:01:54;;;;;;;;;;;;;;;8.29;68.53;97653.84;30001;982;1881;-60
2021/10/01 00:02:25;;;;;;;;;;;;;;;8.27;68.38;97661.41;30001;982;1885;-63
2021/10/01 00:02:56;;;;;;;;;;;;;;;8.27;68.53;97656.00;30001;982;1880;-62
2021/10/01 00:03:27;;;;;;;;;;;;;;;8.26;68.76;97648.97;30001;982;1885;-63
2021/10/01 00:03:58;;;;;;;;;;;;;;;8.27;68.40;97650.59;30001;982;1858;-62
2021/10/01 00:04:30;;;;;;;;;;;;;;;8.26;68.71;97643.56;30001;983;1879;-63
2021/10/01 00:05:02;;;;;;;;;;;;;;;8.27;68.40;97658.72;30001;983;1880;-63
2021/10/01 00:05:33;;;;;;;;;;;;;;;8.26;68.59;97657.88;30001;983;1884;-64
2021/10/01 00:06:04;;;;;;;;;;;;;;;8.25;68.70;97647.34;30001;983;1880;-64
2021/10/01 00:06:35;;;;;;;;;;;;;;;8.25;68.47;97653.56;30001;983;1884;-61
2021/10/01 00:07:06;;;;;;;;;;;;;;;8.27;68.55;97650.59;30001;983;1880;-63
2021/10/01 00:07:37;;;;;;;;;;;;;;;8.27;68.33;97656.00;30001;983;1884;-65
2021/10/01 00:08:08;;;;;;;;;;;;;;;8.26;68.38;97651.66;30001;983;1858;-62
2021/10/01 00:08:39;;;;;;;;;;;;;;;8.25;68.48;97652.75;30001;982;1880;-64
2021/10/01 00:09:10;;;;;;;;;;;;;;;8.26;68.55;97655.19;30001;982;1880;-65
2021/10/01 00:09:42;;;;;;;;;;;;;;;8.27;68.44;97650.59;30001;982;1885;-64
2021/10/01 00:10:13;;;;;;;;;;;;;;;8.26;68.40;97644.38;30001;982;1880;-63
2021/10/01 00:10:44;;;;;;;;;;;;;;;8.28;68.53;97652.22;30001;982;1885;-63
2021/10/01 00:11:15;;;;;;;;;;;;;;;8.28;68.42;97646.81;30001;982;1787;-62
2021/10/01 00:11:54;;;;;;;;;;;;;;;8.28;68.62;97646.81;30001;960;1907;-62
2021/10/01 00:12:25;;;;;;;;;;;;;;;8.27;68.63;97645.19;30001;983;1879;-63
2021/10/01 00:12:56;;;;;;;;;;;;;;;8.29;68.40;97640.34;30001;983;1862;-63
2021/10/01 00:13:27;;;;;;;;;;;;;;;8.29;68.62;97648.44;30001;983;1875;-62
2021/10/01 00:13:58;;;;;;;;;;;;;;;8.26;68.67;97649.78;30001;983;1884;-64
2021/10/01 00:14:29;;;;;;;;;;;;;;;8.25;68.57;97652.75;30001;983;1880;-63
2021/10/01 00:15:00;;;;;;;;;;;;;;;8.26;68.50;97649.78;30001;983;1884;-63
2021/10/01 00:15:33;;;;;;;;;;;;;;;8.27;68.45;97650.59;30001;983;1858;-63
2021/10/01 00:16:04;;;;;;;;;;;;;;;8.26;68.48;97648.97;30001;982;1880;-61
2021/10/01 00:16:35;;;;;;;;;;;;;;;8.27;68.54;97643.31;30001;982;1880;-62
2021/10/01 00:17:06;;;;;;;;;;;;;;;8.28;68.77;97647.63;30001;982;1885;-63
2021/10/01 00:17:37;;;;;;;;;;;;;;;8.25;68.41;97647.34;30001;982;1880;-61
2021/10/01 00:18:08;;;;;;;;;;;;;;;8.24;68.70;97646.53;30001;982;1885;-62
2021/10/01 00:18:38;;;;;;;;;;;;;;;8.23;68.80;97644.06;30001;982;1881;-61
2021/10/01 00:19:09;;;;;;;;;;;;;;;8.24;68.94;97651.13;30001;982;1885;-62
2021/10/01 00:19:40;;;;;;;;;;;;;;;8.22;68.88;97640.56;30001;983;1880;-62
2021/10/01 00:20:11;;;;;;;;;;;;;;;8.22;68.84;97642.44;30001;983;1862;-61
2021/10/01 00:20:42;;;;;;;;;;;;;;;8.22;68.76;97637.84;30001;983;1875;-61
2021/10/01 00:21:13;;;;;;;;;;;;;;;8.21;68.79;97640.81;30001;983;1884;-64
2021/10/01 00:21:44;;;;;;;;;;;;;;;8.20;69.00;97640.00;30001;983;1880;-62
2021/10/01 00:22:15;;;;;;;;;;;;;;;8.18;68.87;97641.31;30001;983;1884;-60
2021/10/01 00:22:46;;;;;;;;;;;;;;;8.19;68.90;97632.97;30001;983;1880;-61
2021/10/01 00:23:17;;;;;;;;;;;;;;;8.17;68.97;97639.69;30001;983;1884;-63
2021/10/01 00:23:47;;;;;;;;;;;;;;;8.19;69.15;97637.56;30001;982;1880;-63
2021/10/01 00:24:19;;;;;;;;;;;;;;;8.23;68.90;97635.97;30001;982;1863;-62
2021/10/01 00:24:50;;;;;;;;;;;;;;;8.26;68.91;97632.75;30001;982;1876;-63
2021/10/01 00:25:21;;;;;;;;;;;;;;;8.27;68.81;97629.78;30001;982;1885;-62
2021/10/01 00:25:51;;;;;;;;;;;;;;;8.27;68.53;97626.25;30001;982;1880;-62
2021/10/01 00:26:22;;;;;;;;;;;;;;;8.26;68.74;97641.66;30001;982;1885;-62
2021/10/01 00:26:53;;;;;;;;;;;;;;;8.26;68.86;97633.56;30001;983;1880;-63
2021/10/01 00:27:24;;;;;;;;;;;;;;;8.24;68.65;97626.78;30001;983;1884;-67
2021/10/01 00:27:54;;;;;;;;;;;;;;;8.21;68.93;97630.81;30001;983;1880;-62
2021/10/01 00:28:26;;;;;;;;;;;;;;;8.20;69.07;97633.78;30001;983;1884;-60
2021/10/01 00:28:56;;;;;;;;;;;;;;;8.20;69.09;97633.78;30001;983;1880;-61
2021/10/01 00:29:27;;;;;;;;;;;;;;;8.19;68.96;97632.16;30001;983;1862;-63
2021/10/01 00:29:58;;;;;;;;;;;;;;;8.17;69.24;97634.28;30001;983;1876;-64
2021/10/01 00:30:29;;;;;;;;;;;;;;;8.18;69.24;97635.91;30001;983;1884;-61
2021/10/01 00:31:00;;;;;;;;;;;;;;;8.17;68.86;97634.28;30001;982;1858;-62
2021/10/01 00:31:31;;;;;;;;;;;;;;;8.15;69.32;97628.31;30001;982;1880;-66
2021/10/01 00:32:03;;;;;;;;;;;;;;;8.17;69.24;97629.69;30001;982;1880;-62
2021/10/01 00:32:34;;;;;;;;;;;;;;;8.15;69.21;97623.75;30001;982;1885;-62
2021/10/01 00:33:05;;;;;;;;;;;;;;;8.16;68.93;97627.25;30001;982;1880;-64
2021/10/01 00:33:36;;;;;;;;;;;;;;;8.16;69.07;97624.56;30001;982;1885;-62
2021/10/01 00:34:07;;;;;;;;;;;;;;;8.15;69.35;97629.16;30001;982;1881;-64
2021/10/01 00:34:38;;;;;;;;;;;;;;;8.15;69.29;97628.31;30001;983;1884;-60
2021/10/01 00:35:08;;;;;;;;;;;;;;;8.16;69.24;97621.84;30001;983;1880;-62
2021/10/01 00:35:39;;;;;;;;;;;;;;;8.15;69.17;97621.03;30001;983;1862;-62
2021/10/01 00:36:10;;;;;;;;;;;;;;;8.15;68.91;97622.91;30001;983;1875;-65
2021/10/01 00:36:41;;;;;;;;;;;;;;;8.14;69.15;97624.00;30001;983;1884;-61
2021/10/01 00:37:11;;;;;;;;;;;;;;;8.12;69.18;97620.72;30001;983;1880;-65
2021/10/01 00:37:42;;;;;;;;;;;;;;;8.12;69.13;97620.72;30001;983;1884;-62
2021/10/01 00:38:14;;;;;;;;;;;;;;;8.12;69.01;97620.72;30001;983;1880;-63
2021/10/01 00:38:45;;;;;;;;;;;;;;;8.13;69.33;97617.78;30001;982;1885;-65
2021/10/01 00:39:15;;;;;;;;;;;;;;;8.16;68.95;97616.44;30001;982;1880;-64
2021/10/01 00:39:46;;;;;;;;;;;;;;;8.18;68.94;97625.09;30001;982;1863;-66
2021/10/01 00:40:17;;;;;;;;;;;;;;;8.16;69.12;97616.44;30001;982;1876;-64
2021/10/01 00:40:48;;;;;;;;;;;;;;;8.18;68.94;97615.13;30001;982;1885;-63
2021/10/01 00:41:19;;;;;;;;;;;;;;;8.17;68.79;97623.47;30001;983;1880;-62
2021/10/01 00:41:50;;;;;;;;;;;;;;;8.16;69.07;97605.63;30001;983;1884;-66
2021/10/01 00:42:20;;;;;;;;;;;;;;;8.15;69.05;97614.81;30001;983;1880;-63
2021/10/01 00:42:51;;;;;;;;;;;;;;;8.15;69.36;97615.63;30001;983;1884;-64
2021/10/01 00:43:22;;;;;;;;;;;;;;;8.15;69.12;97609.41;30001;983;1880;-62
2021/10/01 00:43:54;;;;;;;;;;;;;;;8.16;69.02;97611.84;30001;983;1884;-63
2021/10/01 00:44:25;;;;;;;;;;;;;;;8.20;69.16;97606.75;30001;983;1858;-67
2021/10/01 00:44:56;;;;;;;;;;;;;;;8.18;68.76;97609.72;30001;983;1880;-67
2021/10/01 00:45:26;;;;;;;;;;;;;;;8.16;69.02;97605.63;30001;983;1880;-66
2021/10/01 00:45:57;;;;;;;;;;;;;;;8.15;69.07;97607.53;30001;983;1884;-62
2021/10/01 00:46:28;;;;;;;;;;;;;;;8.14;69.14;97613.19;30001;982;1880;-63
2021/10/01 00:46:59;;;;;;;;;;;;;;;8.13;69.13;97608.84;30001;982;1863;-66
2021/10/01 00:47:30;;;;;;;;;;;;;;;8.12;69.23;97610.75;30001;982;1876;-63
2021/10/01 00:48:01;;;;;;;;;;;;;;;8.13;69.10;97611.56;30001;982;1885;-62
2021/10/01 00:48:31;;;;;;;;;;;;;;;8.12;69.36;97609.91;30001;982;1880;-63
2021/10/01 00:49:03;;;;;;;;;;;;;;;8.11;69.23;97616.41;30001;983;1862;-66
2021/10/01 00:49:34;;;;;;;;;;;;;;;8.10;69.03;97604.78;30001;983;1875;-65
2021/10/01 00:50:07;;;;;;;;;;;;;;;8.11;69.35;97603.69;30001;983;1884;-64
2021/10/01 00:50:38;;;;;;;;;;;;;;;8.12;69.45;97609.91;30001;983;1880;-63
2021/10/01 00:51:10;;;;;;;;;;;;;;;8.12;69.12;97607.22;30001;983;1884;-61
2021/10/01 00:51:42;;;;;;;;;;;;;;;8.12;69.17;97607.22;30001;983;1880;-61
2021/10/01 00:52:15;;;;;;;;;;;;;;;8.11;69.21;97616.41;30001;983;1884;-63
2021/10/01 00:52:47;;;;;;;;;;;;;;;8.14;69.32;97607.78;30001;983;1880;-62
2021/10/01 00:53:19;;;;;;;;;;;;;;;8.12;69.01;97608.03;30001;983;1885;-62
2021/10/01 00:53:50;;;;;;;;;;;;;;;8.11;69.26;97609.09;30001;973;1879;-62
2021/10/01 00:54:21;;;;;;;;;;;;;;;8.10;69.12;97606.66;30001;982;1880;-61
2021/10/01 00:54:52;;;;;;;;;;;;;;;8.12;69.18;97615.31;30001;982;1858;-63
2021/10/01 00:55:25;;;;;;;;;;;;;;;8.12;69.11;97609.91;30001;982;1880;-63
2021/10/01 00:55:56;;;;;;;;;;;;;;;8.10;69.38;97601.25;30001;982;1880;-62
2021/10/01 00:56:27;;;;;;;;;;;;;;;8.08;69.16;97605.03;30001;983;1884;-62
2021/10/01 00:56:58;;;;;;;;;;;;;;;8.08;69.21;97615.84;30001;983;1880;-62
2021/10/01 00:57:29;;;;;;;;;;;;;;;8.07;69.26;97610.69;30001;983;1884;-64
2021/10/01 00:58:00;;;;;;;;;;;;;;;8.04;69.26;97614.72;30001;983;1880;-65
2021/10/01 00:58:31;;;;;;;;;;;;;;;8.04;69.28;97608.50;30001;983;1884;-63
2021/10/01 00:59:01;;;;;;;;;;;;;;;8.06;69.35;97604.47;30001;983;1880;-63
2021/10/01 00:59:32;;;;;;;;;;;;;;;8.06;69.37;97609.88;30001;983;1884;-65
2021/10/01 01:00:04;;;;;;;;;;;;;;;8.08;69.43;97606.91;30001;983;1858;-65
2021/10/01 01:00:40;;;;;;;;;;;;;;;8.07;69.24;97600.69;30001;983;1880;-64
2021/10/01 01:01:11;;;;;;;;;;;;;;;8.09;69.20;97605.84;30001;982;1880;-62
2021/10/01 01:01:42;;;;;;;;;;;;;;;8.10;69.18;97602.06;30001;982;1885;-63
2021/10/01 01:02:13;;;;;;;;;;;;;;;8.10;69.03;97593.16;30001;982;1858;-64
2021/10/01 01:02:44;;;;;;;;;;;;;;;8.11;68.97;97606.41;30001;982;1881;-63
2021/10/01 01:03:15;;;;;;;;;;;;;;;8.09;69.25;97597.75;30001;982;1880;-63
2021/10/01 01:03:52;;;;;;;;;;;;;;;8.10;69.07;97601.25;30001;983;1884;-61
2021/10/01 01:04:23;;;;;;;;;;;;;;;8.08;69.21;97605.03;30001;983;1880;-63
2021/10/01 01:04:54;;;;;;;;;;;;;;;8.07;69.13;97603.41;30001;983;1884;-66
2021/10/01 01:05:28;;;;;;;;;;;;;;;8.10;69.32;97601.25;30001;983;1880;-65
2021/10/01 01:06:06;;;;;;;;;;;;;;;8.11;69.11;97597.47;30001;983;1884;-64
2021/10/01 01:06:41;;;;;;;;;;;;;;;8.07;69.05;97598.00;30001;983;1880;-63
2021/10/01 01:07:23;;;;;;;;;;;;;;;8.10;69.42;97595.84;30001;983;1863;-62
2021/10/01 01:07:58;;;;;;;;;;;;;;;8.07;69.34;97600.69;30001;966;1871;-62
2021/10/01 01:08:41;;;;;;;;;;;;;;;8.06;69.36;97596.38;30001;983;1884;-63
2021/10/01 01:09:34;;;;;;;;;;;;;;;8.07;69.42;97591.78;30001;982;1880;-67
2021/10/01 01:10:17;;;;;;;;;;;;;;;8.06;69.25;97601.78;30001;970;1899;-64
2021/10/01 01:11:03;;;;;;;;;;;;;;;8.03;69.45;97591.47;30001;982;1880;-63
2021/10/01 01:11:46;;;;;;;;;;;;;;;8.03;69.22;97591.47;30001;983;1884;-62
2021/10/01 01:12:43;;;;;;;;;;;;;;;8.03;69.58;97583.38;30001;983;1880;-66
2021/10/01 01:13:23;;;;;;;;;;;;;;;8.05;69.42;97583.94;30001;983;1858;-63
2021/10/01 01:14:06;;;;;;;;;;;;;;;8.11;69.46;97583.97;30001;983;1876;-62
2021/10/01 01:14:57;;;;;;;;;;;;;;;8.10;69.38;97579.63;30001;983;1885;-63
2021/10/01 01:15:32;;;;;;;;;;;;;;;8.15;68.89;97579.66;30001;982;1849;-62
2021/10/01 01:16:23;;;;;;;;;;;;;;;8.13;68.98;97574.53;30001;982;1880;-62
2021/10/01 01:16:56;;;;;;;;;;;;;;;8.12;68.91;97577.50;30001;982;1876;-62
2021/10/01 01:17:38;;;;;;;;;;;;;;;8.16;69.21;97584.00;30001;982;1885;-61
2021/10/01 01:18:15;;;;;;;;;;;;;;;8.16;68.97;97578.59;30001;982;1859;-63
2021/10/01 01:18:47;;;;;;;;;;;;;;;8.17;68.81;97577.53;30001;982;1880;-63
2021/10/01 01:19:28;;;;;;;;;;;;;;;8.16;69.08;97578.59;30001;983;1880;-63
2021/10/01 01:20:11;;;;;;;;;;;;;;;8.12;68.94;97578.31;30001;983;1884;-62
2021/10/01 01:20:50;;;;;;;;;;;;;;;8.14;68.96;97575.34;30001;983;1858;-65
2021/10/01 01:21:40;;;;;;;;;;;;;;;8.12;69.19;97572.91;30001;983;1880;-62
2021/10/01 01:22:24;;;;;;;;;;;;;;;8.12;69.06;97577.50;30001;983;1876;-62
2021/10/01 01:23:13;;;;;;;;;;;;;;;8.13;69.00;97574.53;30001;983;1884;-63
2021/10/01 01:24:24;;;;;;;;;;;;;;;8.09;69.09;97573.41;30001;982;1871;-62
2021/10/01 01:25:32;;;;;;;;;;;;;;;8.07;69.41;97567.44;30001;982;1858;-63
2021/10/01 01:26:35;;;;;;;;;;;;;;;8.07;69.43;97565.56;30001;982;1872;-62
2021/10/01 01:27:17;;;;;;;;;;;;;;;8.12;69.12;97563.97;30001;983;1879;-64
2021/10/01 01:28:11;;;;;;;;;;;;;;;8.11;68.96;97565.03;30001;983;1880;-64
2021/10/01 01:28:58;;;;;;;;;;;;;;;8.12;69.02;97572.09;30002;983;1793;-65
2021/10/01 01:29:44;;;;;;;;;;;;;;;8.11;69.36;97571.28;30002;983;1880;-62
2021/10/01 01:30:18;;;;;;;;;;;;;;;8.11;69.02;97567.75;30002;983;1863;-63
2021/10/01 01:30:51;;;;;;;;;;;;;;;8.11;69.35;97565.88;30002;982;1876;-61
2021/10/01 01:31:47;;;;;;;;;;;;;;;8.13;69.26;97568.31;30002;982;1884;-62
2021/10/01 01:32:20;;;;;;;;;;;;;;;8.11;69.25;97571.28;30002;982;1854;-64
2021/10/01 01:32:55;;;;;;;;;;;;;;;8.08;69.11;97572.59;30002;982;1880;-64
2021/10/01 01:33:26;;;;;;;;;;;;;;;8.08;69.53;97561.78;30002;982;1881;-63
2021/10/01 01:34:00;;;;;;;;;;;;;;;8.06;69.30;97566.62;30002;983;1884;-63
2021/10/01 01:34:35;;;;;;;;;;;;;;;8.05;69.55;97561.50;30002;983;1880;-62
2021/10/01 01:35:12;;;;;;;;;;;;;;;8.05;69.46;97565.00;30002;983;1884;-64
2021/10/01 01:35:43;;;;;;;;;;;;;;;8.07;69.68;97570.97;30002;983;1880;-64
2021/10/01 01:36:15;;;;;;;;;;;;;;;8.05;69.51;97559.59;30002;983;1884;-63
2021/10/01 01:36:49;;;;;;;;;;;;;;;8.05;69.62;97562.31;30002;983;1880;-65
2021/10/01 01:37:25;;;;;;;;;;;;;;;8.06;69.83;97566.62;30002;983;1863;-62
2021/10/01 01:37:58;;;;;;;;;;;;;;;8.02;69.76;97557.41;30002;983;1876;-62
2021/10/01 01:38:36;;;;;;;;;;;;;;;8.03;69.59;97552.81;30002;982;1885;-64
2021/10/01 01:39:08;;;;;;;;;;;;;;;8.01;69.83;97560.38;30002;982;1881;-64
2021/10/01 01:39:40;;;;;;;;;;;;;;;8.01;69.73;97555.78;30002;982;1885;-63
2021/10/01 01:40:13;;;;;;;;;;;;;;;7.99;69.89;97554.41;30002;982;1880;-63
2021/10/01 01:40:47;;;;;;;;;;;;;;;8.01;69.56;97557.69;30002;982;1885;-65
2021/10/01 01:41:19;;;;;;;;;;;;;;;8.02;69.81;97559.31;30002;982;1881;-62
2021/10/01 01:41:51;;;;;;;;;;;;;;;8.02;69.46;97553.91;30002;983;1884;-63
2021/10/01 01:42:22;;;;;;;;;;;;;;;8.02;69.66;97554.72;30002;983;1858;-64
2021/10/01 01:42:54;;;;;;;;;;;;;;;8.03;69.54;97548.22;30002;983;1880;-63
2021/10/01 01:43:26;;;;;;;;;;;;;;;8.03;69.80;97550.94;30002;983;1880;-62
2021/10/01 01:43:58;;;;;;;;;;;;;;;8.00;70.01;97548.75;30002;983;1884;-63
2021/10/01 01:44:29;;;;;;;;;;;;;;;7.98;70.00;97556.31;30002;983;1880;-63
2021/10/01 01:45:01;;;;;;;;;;;;;;;7.96;69.75;97555.78;30002;983;1885;-62
2021/10/01 01:45:36;;;;;;;;;;;;;;;7.96;70.05;97546.84;30002;983;1880;-66
2021/10/01 01:46:08;;;;;;;;;;;;;;;7.96;69.82;97550.38;30002;982;1885;-64
2021/10/01 01:46:41;;;;;;;;;;;;;;;7.96;69.79;97550.38;30002;982;1858;-65
2021/10/01 01:47:12;;;;;;;;;;;;;;;7.97;69.76;97551.19;30002;982;1880;-63
2021/10/01 01:47:44;;;;;;;;;;;;;;;7.96;70.07;97553.06;30002;982;1881;-61
2021/10/01 01:48:15;;;;;;;;;;;;;;;7.98;70.10;97545.50;30002;983;1862;-60
2021/10/01 01:48:46;;;;;;;;;;;;;;;7.96;70.06;97553.06;30002;983;1875;-63
2021/10/01 01:49:18;;;;;;;;;;;;;;;7.95;69.92;97546.03;30002;983;1884;-62
2021/10/01 01:49:50;;;;;;;;;;;;;;;7.95;70.14;97550.62;30002;983;1880;-62
2021/10/01 01:50:22;;;;;;;;;;;;;;;7.94;70.17;97555.22;30002;983;1884;-64
2021/10/01 01:50:53;;;;;;;;;;;;;;;7.94;70.33;97546.31;30002;983;1880;-63
2021/10/01 01:51:25;;;;;;;;;;;;;;;7.92;70.10;97546.56;30002;983;1884;-63
2021/10/01 01:52:00;;;;;;;;;;;;;;;7.92;70.56;97551.97;30002;983;1880;-62
2021/10/01 01:52:32;;;;;;;;;;;;;;;7.91;70.45;97544.13;30002;983;1884;-62
2021/10/01 01:53:03;;;;;;;;;;;;;;;7.89;70.28;97547.06;30002;983;1880;-63
2021/10/01 01:53:35;;;;;;;;;;;;;;;7.88;70.52;97539.22;30002;982;1863;-62
2021/10/01 01:54:06;;;;;;;;;;;;;;;7.87;70.58;97543.81;30002;982;1854;-63
2021/10/01 01:54:39;;;;;;;;;;;;;;;7.88;70.52;97544.63;30002;982;1885;-61
2021/10/01 01:55:11;;;;;;;;;;;;;;;7.89;70.59;97543.56;30002;982;1859;-65
2021/10/01 01:55:44;;;;;;;;;;;;;;;7.90;70.38;97532.50;30002;983;1879;-62
2021/10/01 01:56:19;;;;;;;;;;;;;;;7.91;70.43;97534.13;30002;983;1880;-60
2021/10/01 01:56:50;;;;;;;;;;;;;;;7.93;70.24;97537.38;30002;983;1884;-61
2021/10/01 01:57:23;;;;;;;;;;;;;;;7.94;70.33;97530.91;30002;983;1880;-62
2021/10/01 01:57:54;;;;;;;;;;;;;;;7.94;70.16;97528.19;30002;983;1884;-63
2021/10/01 01:58:25;;;;;;;;;;;;;;;7.96;70.25;97526.06;30002;983;1880;-61
2021/10/01 01:58:59;;;;;;;;;;;;;;;7.93;70.44;97534.69;30002;983;1862;-62
2021/10/01 01:59:31;;;;;;;;;;;;;;;7.91;70.36;97527.91;30002;983;1876;-63
2021/10/01 02:00:04;;;;;;;;;;;;;;;7.91;70.32;97531.41;30002;983;1884;-60
2021/10/01 02:00:38;;;;;;;;;;;;;;;7.92;70.19;97530.34;30002;983;1880;-66
2021/10/01 02:01:09;;;;;;;;;;;;;;;7.90;70.29;97537.91;30002;982;1885;-65
2021/10/01 02:01:41;;;;;;;;;;;;;;;7.90;70.36;97532.50;30002;982;1858;-62
2021/10/01 02:02:13;;;;;;;;;;;;;;;7.91;70.35;97536.00;30002;982;1880;-61
2021/10/01 02:02:44;;;;;;;;;;;;;;;7.90;70.79;97532.50;30002;982;1880;-63
2021/10/01 02:03:16;;;;;;;;;;;;;;;7.87;70.41;97527.59;30002;983;1884;-64
2021/10/01 02:03:48;;;;;;;;;;;;;;;7.86;70.53;97530.56;30002;983;1858;-63
2021/10/01 02:04:20;;;;;;;;;;;;;;;7.86;70.78;97531.37;30002;983;1880;-61
2021/10/01 02:04:52;;;;;;;;;;;;;;;7.88;70.80;97528.41;30002;983;1880;-63
2021/10/01 02:05:23;;;;;;;;;;;;;;;7.90;70.58;97521.69;30002;983;1862;-62
2021/10/01 02:05:58;;;;;;;;;;;;;;;7.89;70.49;97525.47;30002;983;1875;-64
2021/10/01 02:06:30;;;;;;;;;;;;;;;7.93;70.29;97523.06;30002;983;1884;-63
2021/10/01 02:07:02;;;;;;;;;;;;;;;7.91;70.65;97523.31;30002;983;1880;-61
2021/10/01 02:07:33;;;;;;;;;;;;;;;7.89;70.29;97525.47;30002;983;1884;-63
2021/10/01 02:08:08;;;;;;;;;;;;;;;7.90;70.75;97527.09;30002;983;1880;-65
2021/10/01 02:08:39;;;;;;;;;;;;;;;7.91;70.55;97527.91;30002;982;1863;-66
2021/10/01 02:09:11;;;;;;;;;;;;;;;7.91;70.76;97522.50;30002;982;1876;-65
2021/10/01 02:09:43;;;;;;;;;;;;;;;7.89;70.36;97535.44;30002;982;1885;-61
2021/10/01 02:10:15;;;;;;;;;;;;;;;7.87;70.42;97522.19;30002;982;1880;-66
2021/10/01 02:10:46;;;;;;;;;;;;;;;7.87;70.57;97524.91;30002;982;1885;-64
2021/10/01 02:11:17;;;;;;;;;;;;;;;7.85;70.64;97524.34;30002;983;1880;-61
2021/10/01 02:11:48;;;;;;;;;;;;;;;7.85;70.47;97528.94;30002;983;1884;-65
2021/10/01 02:12:20;;;;;;;;;;;;;;;7.84;70.76;97525.41;30002;983;1880;-62
2021/10/01 02:12:55;;;;;;;;;;;;;;;7.86;70.67;97523.28;30002;983;1884;-62
2021/10/01 02:13:26;;;;;;;;;;;;;;;7.91;70.52;97523.31;30002;983;1858;-62
2021/10/01 02:13:58;;;;;;;;;;;;;;;7.94;70.47;97521.97;30002;983;1880;-63
2021/10/01 02:14:31;;;;;;;;;;;;;;;7.93;70.39;97521.16;30002;983;1880;-63
2021/10/01 02:15:03;;;;;;;;;;;;;;;7.91;70.28;97523.31;30002;983;1885;-64
2021/10/01 02:15:35;;;;;;;;;;;;;;;7.92;70.69;97518.72;30002;983;1880;-63
2021/10/01 02:16:07;;;;;;;;;;;;;;;7.92;70.71;97524.94;30002;982;1885;-63
2021/10/01 02:16:39;;;;;;;;;;;;;;;7.93;70.32;97526.56;30002;982;1880;-64
2021/10/01 02:17:11;;;;;;;;;;;;;;;7.93;70.50;97515.75;30002;982;1885;-65
2021/10/01 02:17:43;;;;;;;;;;;;;;;7.94;70.34;97517.41;30002;982;1859;-66
2021/10/01 02:18:14;;;;;;;;;;;;;;;7.94;70.54;97522.78;30002;982;1880;-64
2021/10/01 02:18:47;;;;;;;;;;;;;;;7.94;70.60;97521.97;30002;983;1858;-62
2021/10/01 02:19:19;;;;;;;;;;;;;;;7.91;70.55;97517.91;30002;983;1880;-63
2021/10/01 02:19:51;;;;;;;;;;;;;;;7.91;70.72;97517.09;30002;983;1880;-65
2021/10/01 02:20:23;;;;;;;;;;;;;;;7.91;70.44;97515.22;30001;983;1884;-61
2021/10/01 02:20:56;;;;;;;;;;;;;;;7.91;70.68;97517.09;30001;983;1880;-62
2021/10/01 02:21:28;;;;;;;;;;;;;;;7.90;70.37;97513.56;30001;983;1884;-61
2021/10/01 02:22:02;;;;;;;;;;;;;;;7.90;70.77;97508.19;30001;983;1880;-68
2021/10/01 02:22:34;;;;;;;;;;;;;;;7.93;70.42;97510.34;30001;982;1885;-62
2021/10/01 02:23:05;;;;;;;;;;;;;;;7.92;70.38;97508.72;30002;982;1858;-63
2021/10/01 02:23:36;;;;;;;;;;;;;;;7.92;70.35;97510.63;30001;982;1858;-62
2021/10/01 02:24:07;;;;;;;;;;;;;;;7.92;70.34;97511.44;30001;982;1880;-64
2021/10/01 02:24:39;;;;;;;;;;;;;;;7.91;70.61;97507.09;30001;982;1885;-62
2021/10/01 02:26:33;;;;;;;;;;;;;;;7.92;70.60;97507.91;30001;982;1880;-61
2021/10/01 02:26:55;;;;;;;;;;;;;;;7.85;70.80;97507.31;30001;983;1880;-62
2021/10/01 02:27:34;;;;;;;;;;;;;;;7.86;70.61;97508.94;30001;983;1884;-64
2021/10/01 02:28:11;;;;;;;;;;;;;;;7.84;70.61;97495.69;30001;983;1858;-62
2021/10/01 02:28:46;;;;;;;;;;;;;;;7.88;70.57;97502.22;30001;983;1880;-63
2021/10/01 02:29:37;;;;;;;;;;;;;;;7.86;71.02;97498.97;30001;983;1880;-66
2021/10/01 02:30:19;;;;;;;;;;;;;;;7.88;70.83;97496.81;30001;982;1880;-63
2021/10/01 02:30:51;;;;;;;;;;;;;;;7.85;70.91;97497.34;30001;982;1880;-65
2021/10/01 02:31:25;;;;;;;;;;;;;;;7.87;70.91;97497.88;30001;982;1885;-67
2021/10/01 02:32:20;;;;;;;;;;;;;;;7.87;70.81;97495.19;30001;982;1880;-61
2021/10/01 02:32:56;;;;;;;;;;;;;;;7.89;71.00;97492.22;30001;982;1863;-61
2021/10/01 02:33:36;;;;;;;;;;;;;;;7.88;70.75;97491.41;30001;983;1875;-64
2021/10/01 02:34:08;;;;;;;;;;;;;;;7.92;70.64;97495.22;30001;983;1884;-64
2021/10/01 02:34:43;;;;;;;;;;;;;;;7.93;70.56;97494.16;30001;983;1858;-63
2021/10/01 02:35:14;;;;;;;;;;;;;;;7.92;70.61;97497.91;30001;983;1880;-61
2021/10/01 02:35:45;;;;;;;;;;;;;;;7.89;70.65;97486.81;30001;983;1880;-65
2021/10/01 02:36:16;;;;;;;;;;;;;;;7.86;70.63;97493.56;30001;983;1884;-62
2021/10/01 02:36:47;;;;;;;;;;;;;;;7.87;71.03;97488.97;30001;983;1880;-62
2021/10/01 02:37:19;;;;;;;;;;;;;;;7.91;70.79;97490.06;30001;983;1884;-63
2021/10/01 02:37:51;;;;;;;;;;;;;;;7.96;70.81;97487.41;30001;982;1858;-64
2021/10/01 02:38:21;;;;;;;;;;;;;;;7.95;70.53;97491.19;30001;982;1880;-63
2021/10/01 02:38:53;;;;;;;;;;;;;;;7.90;70.87;97483.84;30001;982;1880;-63
2021/10/01 02:39:27;;;;;;;;;;;;;;;7.88;70.67;97491.41;30001;982;1885;-66
2021/10/01 02:40:00;;;;;;;;;;;;;;;7.88;70.97;97490.59;30001;982;1880;-62
2021/10/01 02:40:31;;;;;;;;;;;;;;;7.89;70.68;97489.53;30001;982;1885;-63
2021/10/01 02:41:04;;;;;;;;;;;;;;;7.87;70.64;97489.78;30001;983;1858;-65
2021/10/01 02:41:35;;;;;;;;;;;;;;;7.89;70.84;97486.81;30001;983;1880;-63
2021/10/01 02:42:08;;;;;;;;;;;;;;;7.91;71.01;97487.38;30001;983;1880;-63
2021/10/01 02:42:38;;;;;;;;;;;;;;;7.90;70.66;97493.84;30001;983;1862;-64
2021/10/01 02:43:09;;;;;;;;;;;;;;;7.89;70.70;97484.94;30001;983;1875;-65
2021/10/01 02:43:40;;;;;;;;;;;;;;;7.89;70.98;97487.63;30001;983;1862;-64
2021/10/01 02:44:11;;;;;;;;;;;;;;;7.88;70.90;97491.41;30001;983;1854;-63
2021/10/01 02:44:42;;;;;;;;;;;;;;;7.88;70.95;97486.00;30001;983;1884;-61
2021/10/01 02:45:14;;;;;;;;;;;;;;;7.85;70.91;97481.13;30001;982;1880;-65
2021/10/01 02:45:44;;;;;;;;;;;;;;;7.85;71.31;97481.13;30001;982;1863;-64
2021/10/01 02:46:15;;;;;;;;;;;;;;;7.87;71.14;97483.56;30001;982;1876;-62
2021/10/01 02:46:46;;;;;;;;;;;;;;;7.87;71.32;97483.56;30001;982;1885;-62
2021/10/01 02:47:18;;;;;;;;;;;;;;;7.86;71.24;97482.75;30001;982;1880;-63
2021/10/01 02:47:49;;;;;;;;;;;;;;;7.85;70.93;97483.00;30001;982;1885;-62
2021/10/01 02:48:20;;;;;;;;;;;;;;;7.82;71.21;97487.03;30001;982;1881;-64
2021/10/01 02:48:50;;;;;;;;;;;;;;;7.80;71.12;97482.97;30001;983;1862;-63
2021/10/01 02:49:21;;;;;;;;;;;;;;;7.78;71.17;97477.00;30001;983;1853;-61
2021/10/01 02:49:52;;;;;;;;;;;;;;;7.79;71.52;97479.47;30001;983;1862;-64
2021/10/01 02:50:23;;;;;;;;;;;;;;;7.77;71.36;97484.31;30001;983;1875;-62
2021/10/01 02:50:59;;;;;;;;;;;;;;;7.77;71.35;97483.50;30001;983;1884;-62
2021/10/01 02:51:32;;;;;;;;;;;;;;;7.74;71.59;97479.41;30001;983;1880;-62
2021/10/01 02:52:12;;;;;;;;;;;;;;;7.74;71.82;97479.41;30001;983;1884;-62
2021/10/01 02:53:15;;;;;;;;;;;;;;;7.71;71.64;97485.34;30001;983;1880;-62
2021/10/01 02:54:03;;;;;;;;;;;;;;;7.71;71.90;97479.94;30001;982;1881;-63
2021/10/01 02:54:41;;;;;;;;;;;;;;;7.70;71.82;97478.31;30001;982;1850;-64
2021/10/01 02:55:15;;;;;;;;;;;;;;;7.69;71.84;97476.69;30001;982;1880;-64
2021/10/01 02:56:01;;;;;;;;;;;;;;;7.66;71.67;97475.31;30001;983;1880;-62
2021/10/01 02:56:36;;;;;;;;;;;;;;;7.71;71.81;97480.75;30001;983;1884;-65
2021/10/01 02:57:15;;;;;;;;;;;;;;;7.72;71.60;97476.16;30001;983;1880;-62
2021/10/01 02:57:52;;;;;;;;;;;;;;;7.72;71.91;97476.16;30001;983;1884;-64
2021/10/01 02:58:34;;;;;;;;;;;;;;;7.71;71.62;97478.03;30001;983;1880;-64
2021/10/01 02:59:05;;;;;;;;;;;;;;;7.70;71.69;97476.41;30001;983;1884;-66
2021/10/01 02:59:39;;;;;;;;;;;;;;;7.71;71.69;97478.03;30001;983;1858;-62
2021/10/01 03:00:11;;;;;;;;;;;;;;;7.70;71.86;97484.53;30001;983;1880;-64
2021/10/01 03:00:42;;;;;;;;;;;;;;;7.70;71.73;97473.72;30001;982;1880;-61
2021/10/01 03:01:15;;;;;;;;;;;;;;;7.71;72.03;97477.22;30001;982;1885;-65
2021/10/01 03:01:48;;;;;;;;;;;;;;;7.71;71.65;97479.94;30001;982;1859;-63
2021/10/01 03:02:20;;;;;;;;;;;;;;;7.70;71.75;97478.31;30001;982;1859;-61
2021/10/01 03:02:52;;;;;;;;;;;;;;;7.69;72.24;97476.69;30001;983;1880;-63
2021/10/01 03:03:25;;;;;;;;;;;;;;;7.69;71.82;97476.69;30001;983;1884;-61
2021/10/01 03:03:59;;;;;;;;;;;;;;;7.67;71.87;97473.41;30001;983;1880;-62